Dublin, CA

1:37 AM PST on December 05, 2016 (GMT -0800)
Dublin West Side | | Change Station

Elev 495 ft 37.71 °N, 121.95 °W | Updated 2 minutes ago

Overcast
Overcast
48.6 °F
Feels Like 48 °F
N
3.1
Wind Variable Wind from West
Gusts 4.5 mph

Today
High -- | Low -- °F
--% Chance of Precip.
Yesterday
High -- | Low -- °F
Precip. -- in
Pressure 30.11 in
Visibility 9.0 miles
Clouds Few 1300 ft
Overcast 2300 ft
Windchill 48 °F
Dew Point 48 °F
Humidity 99%
Rainfall 0.00 in
Snow Depth Not available.
7:08 AM 4:48 PM
Waxing Crescent, 30% visible
METAR KLVK 050853Z AUTO 00000KT 9SM FEW013 OVC023 09/08 A3011 RMK AO2 SLP195 T00890078 58005
Pressure 30.11 in
Visibility 9.0 miles
Clouds Few 1300 ft
Overcast 2300 ft
Windchill 48 °F
Dew Point 48 °F
Humidity 99%
Rainfall 0.00 in
Snow Depth Not available.
7:08 AM 4:48 PM
Waxing Crescent, 30% visible
METAR KLVK 050853Z AUTO 00000KT 9SM FEW013 OVC023 09/08 A3011 RMK AO2 SLP195 T00890078 58005

10-Day Weather Forecast

Almanac

Astronomy

Dec. 05, 2016 Rise Set
Actual Time
Civil Twilight
Nautical Twilight
Astronomical Twilight
Moon
Length of Visible Light
Length of Day
Tomorrow will be .
, % of the Moon is Illuminated

Today's Extremes

State Highs State Lows

Community

WunderPhotos

Upload Photos

1,955,771 photos uploaded!

WunderBlog® & News

Nearby

Air Quality

  Air Quality AQ Index Pollutant
Not available.

Snow Depth

Station Depth Elevation

Earthquake Activity

City Distance Mag. Time & Date
Minimum magnitude displayed is 2.5.

Coastal Water Temperatures

Place Temperature

Stations

Nearby Weather Stations

Station Location Temp. Windchill Dew Point Humidity Wind Precip. Elev Updated Type
                   

Watches & Warnings

There are currently no watches in effect.